Time;durP1;ratioP1;P1;durP2;ratioP2;P2;SDS_P1;SDS_P2;PMS_P1;PMS_P2;Temp;Humidity;BMP_temperature;BMP_pressure;BME280_temperature;BME280_humidity;BME280_pressure;Samples;Min_cycle;Max_cycle;Signal;HPM_P1;HPM_P2
2023/08/02 00:00:42;;;;;;;0.55;0.43;;;;;;;20.56;67.31;99000.53;4389353;32;32533;-90
2023/08/02 00:03:10;;;;;;;1.27;0.88;;;;;;;20.64;66.89;98991.72;4401660;32;33955;-91
2023/08/02 00:05:38;;;;;;;0.13;0.13;;;;;;;20.44;67.30;99007.06;4403711;32;32946;-91
2023/08/02 00:08:06;;;;;;;0.08;0.08;;;;;;;20.53;67.39;98998.16;4405119;32;32348;-91
2023/08/02 00:10:37;;;;;;;0.95;0.47;;;;;;;20.45;67.58;99003.37;4393694;32;33047;-90
2023/08/02 00:13:04;;;;;;;0.15;0.15;;;;;;;20.32;68.31;99010.91;4393761;32;32786;-91
2023/08/02 00:15:32;;;;;;;0.10;0.10;;;;;;;20.26;69.09;99017.72;4395799;32;33062;-91
2023/08/02 00:18:00;;;;;;;2.10;0.55;;;;;;;20.32;68.66;99037.72;4403452;32;32327;-90
2023/08/02 00:20:27;;;;;;;0.10;0.10;;;;;;;20.41;68.28;99039.53;4391185;32;33717;-90
2023/08/02 00:22:55;;;;;;;0.43;0.43;;;;;;;20.52;67.55;99042.06;4391219;32;32949;-91
2023/08/02 00:25:24;;;;;;;0.13;0.13;;;;;;;20.49;67.70;99042.34;4390765;32;33184;-90
2023/08/02 00:27:51;;;;;;;0.20;0.20;;;;;;;20.60;66.93;99047.50;4391330;32;32958;-90
2023/08/02 00:30:21;;;;;;;0.10;0.05;;;;;;;20.42;67.64;99052.81;4378246;32;32804;-90
2023/08/02 00:32:49;;;;;;;0.30;0.30;;;;;;;20.46;67.40;99045.28;4390915;32;33169;-90
2023/08/02 00:35:17;;;;;;;0.57;0.57;;;;;;;20.36;68.09;99047.16;4390891;32;32803;-90
2023/08/02 00:37:45;;;;;;;0.00;0.00;;;;;;;20.35;68.21;99050.84;4391015;32;32716;-90
2023/08/02 00:40:13;;;;;;;0.47;0.47;;;;;;;20.37;67.74;99048.87;4391163;32;33132;-90
2023/08/02 00:42:41;;;;;;;0.00;0.00;;;;;;;20.53;67.03;99049.09;4384840;32;33135;-91
2023/08/02 00:45:09;;;;;;;0.00;0.00;;;;;;;20.49;67.17;99039.66;4390839;32;33186;-91
2023/08/02 00:51:58;;;;;;;0.20;0.20;;;;;;;20.52;66.77;99036.69;4379903;32;34837;-91
2023/08/02 00:54:26;;;;;;;0.55;0.28;;;;;;;20.59;66.31;99027.03;4390741;32;33208;-90
2023/08/02 00:56:54;;;;;;;0.20;0.20;;;;;;;20.38;67.01;99027.28;4390859;32;33683;-91
2023/08/02 00:59:22;;;;;;;0.40;0.32;;;;;;;20.30;67.41;99037.03;4398250;32;33453;-91
2023/08/02 01:01:50;;;;;;;0.65;0.65;;;;;;;20.36;67.14;99039.97;4393079;32;33890;-90
2023/08/02 01:04:17;;;;;;;2.40;1.00;;;;;;;20.33;67.50;99056.37;4392963;32;32595;-91
2023/08/02 01:06:49;;;;;;;0.50;0.50;;;;;;;20.24;67.13;99056.41;4405914;32;33158;-92
2023/08/02 01:09:29;;;;;;;0.60;0.60;;;;;;;20.31;67.36;99055.66;4405616;32;32987;-91
2023/08/02 01:12:08;;;;;;;0.55;0.55;;;;;;;19.89;69.46;99055.22;4390528;32;33972;-89
2023/08/02 01:14:49;;;;;;;0.28;0.28;;;;;;;20.33;67.43;99063.56;4390904;32;34655;-90
2023/08/02 01:17:26;;;;;;;0.80;0.80;;;;;;;20.61;66.55;99056.41;4402001;32;33037;-91
2023/08/02 01:20:03;;;;;;;0.03;0.03;;;;;;;20.52;66.88;99052.78;4390352;32;32243;-92
2023/08/02 01:22:31;;;;;;;0.60;0.60;;;;;;;20.44;67.22;99060.69;4378155;32;33645;-90
2023/08/02 01:24:59;;;;;;;4.62;1.55;;;;;;;20.56;66.55;99053.34;4402901;32;32618;-90
2023/08/02 01:27:38;;;;;;;0.45;0.45;;;;;;;20.44;66.93;99052.62;4390445;32;32975;-90
2023/08/02 01:30:09;;;;;;;0.52;0.47;;;;;;;20.36;67.17;99053.38;4390631;32;32550;-90
2023/08/02 01:32:36;;;;;;;2.05;0.90;;;;;;;20.40;67.05;99054.75;4400913;32;32436;-90
2023/08/02 01:35:05;;;;;;;0.75;0.70;;;;;;;20.35;66.76;99050.84;4390407;32;33328;-90
2023/08/02 01:37:35;;;;;;;0.20;0.20;;;;;;;20.14;67.73;99051.91;4390653;32;33833;-90
2023/08/02 01:40:03;;;;;;;0.55;0.55;;;;;;;19.89;68.95;99060.56;4390458;32;33676;-90
2023/08/02 01:42:31;;;;;;;1.17;0.85;;;;;;;19.76;69.89;99055.53;4390644;32;33843;-90
2023/08/02 01:44:59;;;;;;;0.60;0.60;;;;;;;19.81;69.86;99055.09;4390257;32;33131;-91
2023/08/02 01:47:27;;;;;;;0.37;0.37;;;;;;;19.96;69.01;99053.66;4390446;32;33429;-89
2023/08/02 01:49:55;;;;;;;0.50;0.40;;;;;;;19.90;69.53;99059.59;4390262;32;32373;-89
2023/08/02 01:52:22;;;;;;;0.40;0.40;;;;;;;20.08;68.77;99062.34;4390465;32;32261;-91
2023/08/02 01:54:50;;;;;;;1.23;1.10;;;;;;;19.98;68.98;99058.84;4377906;32;33667;-92
2023/08/02 01:57:18;;;;;;;0.57;0.28;;;;;;;19.96;68.85;99067.06;4390363;32;32770;-89
2023/08/02 01:59:46;;;;;;;0.50;0.50;;;;;;;20.38;67.23;99066.66;4390313;32;32598;-90
2023/08/02 02:02:13;;;;;;;0.85;0.85;;;;;;;20.15;67.21;99060.78;4390433;32;34523;-90
2023/08/02 02:04:42;;;;;;;0.40;0.40;;;;;;;20.08;67.54;99055.19;4390481;32;33225;-90
2023/08/02 02:07:09;;;;;;;0.68;0.68;;;;;;;20.09;67.13;99066.75;4402946;32;33574;-89
2023/08/02 02:09:37;;;;;;;0.20;0.20;;;;;;;20.10;67.05;99068.44;4390322;32;32770;-90
2023/08/02 02:12:05;;;;;;;0.20;0.20;;;;;;;20.02;67.22;99071.81;4402822;32;32705;-90
2023/08/02 02:14:33;;;;;;;0.52;0.30;;;;;;;19.87;67.92;99067.91;4390001;32;34150;-90
2023/08/02 02:17:01;;;;;;;0.22;0.22;;;;;;;19.64;69.02;99065.53;4390278;32;34017;-91
2023/08/02 02:19:29;;;;;;;0.93;0.85;;;;;;;19.76;68.59;99076.13;4390495;32;32339;-89
2023/08/02 02:21:57;;;;;;;0.30;0.30;;;;;;;19.97;67.50;99076.78;4390367;32;32683;-90
2023/08/02 02:24:25;;;;;;;0.10;0.10;;;;;;;19.86;67.80;99079.63;4390202;32;33083;-90
2023/08/02 02:26:52;;;;;;;0.28;0.28;;;;;;;19.96;67.10;99080.44;4390312;32;32581;-90
2023/08/02 02:29:20;;;;;;;0.32;0.32;;;;;;;19.87;67.57;99078.63;4390184;32;32845;-91
2023/08/02 02:31:47;;;;;;;0.88;0.88;;;;;;;19.80;67.87;99078.37;4389991;32;32567;-91
2023/08/02 02:34:15;;;;;;;0.55;0.55;;;;;;;19.85;67.75;99086.81;4390128;32;33482;-92
2023/08/02 02:36:45;;;;;;;2.12;0.75;;;;;;;19.90;67.49;99094.44;4390192;32;32721;-91
2023/08/02 02:39:13;;;;;;;0.25;0.25;;;;;;;19.86;67.49;99087.66;4389858;32;33165;-91
2023/08/02 02:41:40;;;;;;;0.70;0.57;;;;;;;19.78;67.83;99096.41;4403102;32;32104;-91
2023/08/02 02:44:08;;;;;;;0.57;0.57;;;;;;;19.84;67.33;99095.81;4405300;32;32568;-90
2023/08/02 02:46:36;;;;;;;0.47;0.47;;;;;;;19.65;67.85;99095.84;4392573;32;33249;-91
2023/08/02 02:49:03;;;;;;;1.77;0.57;;;;;;;19.68;67.34;99093.72;4404940;32;33000;-91
2023/08/02 02:51:31;;;;;;;0.15;0.15;;;;;;;19.74;67.35;99091.47;4400614;32;32759;-91
2023/08/02 02:53:59;;;;;;;0.73;0.73;;;;;;;19.60;67.55;99100.78;4405308;32;32737;-91
2023/08/02 02:56:26;;;;;;;0.03;0.03;;;;;;;19.54;68.20;99109.34;4392621;32;33534;-89
2023/08/02 02:58:54;;;;;;;1.27;1.17;;;;;;;19.48;68.20;99107.25;4405385;32;32210;-89
2023/08/02 03:01:22;;;;;;;0.45;0.32;;;;;;;19.45;68.10;99114.56;4392619;32;32797;-89
2023/08/02 03:03:49;;;;;;;0.20;0.20;;;;;;;19.56;67.94;99113.59;4405397;32;33817;-90
2023/08/02 03:06:17;;;;;;;1.33;0.98;;;;;;;19.59;67.49;99117.81;4405067;32;32524;-90
2023/08/02 03:08:45;;;;;;;0.62;0.62;;;;;;;19.60;67.57;99119.53;4392476;32;33644;-90
2023/08/02 03:11:13;;;;;;;0.22;0.20;;;;;;;19.58;67.81;99132.19;4390704;32;32626;-89
2023/08/02 03:13:43;;;;;;;1.75;0.68;;;;;;;19.60;67.85;99128.41;4389748;32;32882;-91
2023/08/02 03:16:11;;;;;;;0.47;0.47;;;;;;;19.55;67.71;99122.59;4389244;32;33552;-91
2023/08/02 03:18:38;;;;;;;0.60;0.60;;;;;;;19.55;67.52;99125.28;4390035;32;32087;-91
2023/08/02 03:21:06;;;;;;;0.70;0.70;;;;;;;19.48;67.86;99131.34;4390600;32;33810;-90
2023/08/02 03:23:34;;;;;;;0.35;0.35;;;;;;;19.45;67.96;99137.81;4392556;32;33447;-90
2023/08/02 03:26:02;;;;;;;0.40;0.40;;;;;;;19.50;67.58;99143.59;4404919;32;32778;-90
2023/08/02 03:28:32;;;;;;;1.55;0.80;;;;;;;19.67;66.99;99132.22;4392619;32;32514;-90
2023/08/02 03:31:00;;;;;;;0.25;0.25;;;;;;;19.56;67.35;99140.37;4404824;32;32953;-90
2023/08/02 03:33:28;;;;;;;0.20;0.17;;;;;;;19.92;65.79;99133.47;4392102;32;33271;-90
2023/08/02 03:35:55;;;;;;;0.00;0.00;;;;;;;19.94;65.75;99144.06;4404478;32;33914;-90
2023/08/02 03:38:23;;;;;;;0.22;0.20;;;;;;;19.65;66.68;99152.97;4404189;32;32231;-90
2023/08/02 03:40:51;;;;;;;0.20;0.20;;;;;;;19.51;67.40;99147.97;4404395;32;32475;-90
2023/08/02 03:43:19;;;;;;;1.17;0.73;;;;;;;19.64;66.90;99131.66;4404891;32;34680;-89
2023/08/02 03:45:46;;;;;;;0.35;0.35;;;;;;;19.36;68.13;99149.34;4404647;32;33234;-90
2023/08/02 03:48:14;;;;;;;0.20;0.20;;;;;;;19.48;67.84;99142.91;4404681;32;32239;-90
2023/08/02 03:50:42;;;;;;;0.05;0.05;;;;;;;19.49;68.11;99152.63;4404448;32;33367;-90
2023/08/02 03:53:10;;;;;;;0.00;0.00;;;;;;;19.43;68.23;99145.16;4404614;32;33514;-90
2023/08/02 03:55:37;;;;;;;0.25;0.25;;;;;;;19.36;68.42;99149.34;4379461;32;32637;-90
2023/08/02 03:58:05;;;;;;;2.05;0.88;;;;;;;19.40;68.65;99140.91;4392089;32;32236;-90
2023/08/02 04:00:33;;;;;;;0.20;0.20;;;;;;;19.51;68.39;99141.75;4369999;32;215924;-90
2023/08/02 04:03:01;;;;;;;0.00;0.00;;;;;;;19.67;67.83;99145.63;4389252;32;32726;-91
2023/08/02 04:05:28;;;;;;;22.42;0.68;;;;;;;19.79;67.57;99140.09;4389452;32;33446;-90
2023/08/02 04:07:56;;;;;;;1.50;0.47;;;;;;;20.10;66.27;99138.97;4389426;32;34037;-91
2023/08/02 04:10:24;;;;;;;0.00;0.00;;;;;;;19.86;67.25;99142.09;4401505;32;32636;-91
2023/08/02 04:12:52;;;;;;;0.55;0.30;;;;;;;19.95;67.04;99145.75;4398626;32;34571;-91
2023/08/02 04:15:20;;;;;;;0.28;0.28;;;;;;;19.88;67.57;99139.25;4403992;32;32950;-91
2023/08/02 04:17:49;;;;;;;0.37;0.30;;;;;;;19.95;67.38;99143.06;4376228;32;32000;-91
2023/08/02 04:20:17;;;;;;;0.30;0.30;;;;;;;19.99;67.43;99147.16;4388777;32;32910;-91
2023/08/02 04:22:47;;;;;;;0.30;0.30;;;;;;;20.31;66.42;99152.16;4388908;32;32714;-90
2023/08/02 04:25:16;;;;;;;0.70;0.30;;;;;;;20.26;66.85;99151.75;4388380;32;32622;-91
2023/08/02 04:27:43;;;;;;;0.43;0.30;;;;;;;20.21;67.38;99148.66;4388563;32;32186;-91
2023/08/02 04:30:11;;;;;;;0.22;0.22;;;;;;;20.32;67.08;99153.00;4388445;32;32878;-91
2023/08/02 04:32:39;;;;;;;0.22;0.20;;;;;;;20.51;66.65;99152.12;4389037;32;34076;-90
2023/08/02 04:35:07;;;;;;;0.43;0.30;;;;;;;20.64;66.19;99160.72;4383145;32;33232;-90
2023/08/02 04:37:35;;;;;;;0.20;0.20;;;;;;;20.64;66.35;99158.88;4391240;32;32383;-90
2023/08/02 04:40:03;;;;;;;0.00;0.00;;;;;;;20.83;66.13;99159.78;4388593;32;33327;-90
2023/08/02 04:42:31;;;;;;;0.45;0.45;;;;;;;20.86;66.21;99146.94;4400873;32;33473;-91
2023/08/02 04:44:59;;;;;;;0.00;0.00;;;;;;;20.88;66.14;99146.78;4384569;32;32814;-91
2023/08/02 04:47:27;;;;;;;0.20;0.20;;;;;;;20.81;66.41;99149.22;4394468;32;32792;-89
2023/08/02 04:49:57;;;;;;;0.10;0.10;;;;;;;20.77;66.40;99152.34;4403333;32;33326;-90
2023/08/02 04:52:24;;;;;;;0.22;0.20;;;;;;;21.28;64.32;99138.38;4392743;32;32748;-90
2023/08/02 04:54:52;;;;;;;0.13;0.13;;;;;;;21.34;64.13;99145.84;4393006;32;32887;-89
2023/08/02 04:57:20;;;;;;;0.20;0.20;;;;;;;21.33;64.67;99148.69;4396545;32;33611;-90
2023/08/02 04:59:47;;;;;;;0.30;0.30;;;;;;;21.39;64.37;99153.44;4389976;32;34036;-90
2023/08/02 05:02:15;;;;;;;0.62;0.62;;;;;;;21.37;64.17;99150.91;4380445;32;33834;-90
2023/08/02 05:04:43;;;;;;;1.02;0.68;;;;;;;21.41;64.03;99152.31;4405322;32;33604;-90
2023/08/02 05:07:10;;;;;;;6.22;0.98;;;;;;;21.47;63.33;99150.84;4389726;32;32929;-90
2023/08/02 05:09:38;;;;;;;0.35;0.35;;;;;;;21.41;63.54;99144.25;4389999;32;33144;-90
2023/08/02 05:12:06;;;;;;;0.43;0.43;;;;;;;21.36;63.77;99154.56;4396308;32;32730;-90
2023/08/02 05:14:34;;;;;;;0.22;0.13;;;;;;;21.01;65.48;99163.37;4405119;32;32259;-90
2023/08/02 05:17:07;;;;;;;0.77;0.43;;;;;;;21.39;64.19;99156.97;4398405;32;33262;-89
2023/08/02 05:19:35;;;;;;;0.65;0.65;;;;;;;21.54;62.93;99151.91;4398047;32;33630;-90
2023/08/02 05:22:03;;;;;;;0.98;0.88;;;;;;;21.23;64.63;99149.56;4404687;32;33318;-90
2023/08/02 05:24:30;;;;;;;1.45;0.52;;;;;;;21.27;64.46;99155.50;4404081;32;33201;-90
2023/08/02 05:27:19;;;;;;;0.35;0.35;;;;;;;21.45;64.60;99160.88;4405130;32;32539;-90
2023/08/02 05:29:47;;;;;;;0.90;0.65;;;;;;;21.37;65.28;99163.50;4394540;32;32207;-90
2023/08/02 05:32:14;;;;;;;0.03;0.03;;;;;;;21.57;64.04;99158.84;4401459;32;33488;-90
2023/08/02 05:34:42;;;;;;;0.08;0.08;;;;;;;21.89;62.40;99158.31;4391318;32;32960;-90
2023/08/02 05:37:10;;;;;;;0.10;0.10;;;;;;;21.77;63.38;99156.84;4397202;32;33293;-90
2023/08/02 05:39:37;;;;;;;0.68;0.47;;;;;;;22.06;61.08;99165.50;4395236;32;33850;-89
2023/08/02 05:42:05;;;;;;;0.28;0.28;;;;;;;21.56;62.71;99176.81;4395988;32;33682;-89
2023/08/02 05:44:36;;;;;;;2.05;0.52;;;;;;;21.53;63.78;99166.34;4384547;32;33030;-90
2023/08/02 05:47:04;;;;;;;1.90;1.20;;;;;;;21.69;62.88;99173.72;4398268;32;32997;-90
2023/08/02 05:49:31;;;;;;;0.20;0.20;;;;;;;21.89;62.37;99172.59;4395085;32;32537;-90
2023/08/02 05:51:59;;;;;;;0.15;0.15;;;;;;;21.92;62.01;99166.03;4397537;32;32886;-90
2023/08/02 05:54:27;;;;;;;1.25;0.57;;;;;;;21.91;61.83;99169.75;4398119;32;33567;-90
2023/08/02 05:56:55;;;;;;;0.10;0.10;;;;;;;22.03;61.83;99168.50;4390461;32;33837;-90
2023/08/02 05:59:23;;;;;;;0.55;0.35;;;;;;;22.07;61.21;99164.47;4398705;32;32985;-90
2023/08/02 06:01:50;;;;;;;0.50;0.50;;;;;;;22.43;60.58;99170.69;4402375;32;33163;-90
2023/08/02 06:04:20;;;;;;;0.08;0.08;;;;;;;22.31;61.01;99181.84;4384813;32;33903;-89
2023/08/02 06:06:48;;;;;;;0.73;0.65;;;;;;;22.44;60.45;99187.66;4390206;32;32798;-90
2023/08/02 06:09:16;;;;;;;0.45;0.45;;;;;;;22.83;60.66;99187.22;4398261;32;32963;-89
2023/08/02 06:11:44;;;;;;;0.55;0.43;;;;;;;22.99;60.17;99185.50;4390081;32;33907;-90
2023/08/02 06:14:11;;;;;;;0.70;0.65;;;;;;;23.06;58.25;99192.91;4403956;32;33106;-90
2023/08/02 06:16:39;;;;;;;0.00;0.00;;;;;;;22.83;59.57;99196.13;4390282;32;33272;-90
2023/08/02 06:19:07;;;;;;;1.60;0.50;;;;;;;22.98;58.64;99199.13;4382735;32;32647;-90
2023/08/02 06:21:36;;;;;;;0.60;0.60;;;;;;;23.12;59.48;99200.34;4397316;32;33838;-90
2023/08/02 06:24:04;;;;;;;0.30;0.30;;;;;;;23.46;57.39;99203.84;4403023;32;33387;-89
2023/08/02 06:26:32;;;;;;;0.52;0.40;;;;;;;23.29;58.58;99204.78;4396308;32;34627;-90
2023/08/02 06:29:00;;;;;;;0.62;0.62;;;;;;;23.07;59.23;99206.22;4391409;32;32946;-90
2023/08/02 06:31:28;;;;;;;0.20;0.20;;;;;;;23.15;59.50;99208.09;4384043;32;32998;-90
2023/08/02 06:33:56;;;;;;;0.00;0.00;;;;;;;23.55;58.48;99206.56;4402550;32;32690;-90
2023/08/02 06:36:24;;;;;;;1.02;0.95;;;;;;;23.56;58.05;99200.19;4390642;32;33058;-90
2023/08/02 06:38:51;;;;;;;0.70;0.50;;;;;;;23.49;58.38;99206.19;4401980;32;32793;-90
2023/08/02 06:41:19;;;;;;;0.75;0.35;;;;;;;23.68;57.60;99199.72;4397880;32;32562;-90
2023/08/02 06:43:47;;;;;;;0.20;0.20;;;;;;;23.58;58.36;99212.47;4390114;32;33241;-90
2023/08/02 06:46:15;;;;;;;0.20;0.20;;;;;;;23.79;56.83;99217.44;4402330;32;32026;-91
2023/08/02 06:48:42;;;;;;;0.40;0.40;;;;;;;24.01;57.27;99219.47;4396046;32;33834;-90
2023/08/02 06:51:11;;;;;;;1.10;0.30;;;;;;;24.07;56.76;99214.41;4402365;32;33412;-90
2023/08/02 06:53:39;;;;;;;0.22;0.22;;;;;;;23.98;57.45;99216.28;4395940;32;33794;-90
2023/08/02 06:56:12;;;;;;;0.88;0.60;;;;;;;23.84;57.28;99214.25;4385380;32;32133;-91
2023/08/02 06:58:41;;;;;;;0.73;0.73;;;;;;;23.88;56.26;99210.19;4395120;32;34997;-91
2023/08/02 07:01:15;;;;;;;0.15;0.15;;;;;;;24.42;55.82;99207.91;4396022;32;33526;-91
2023/08/02 07:03:43;;;;;;;0.05;0.05;;;;;;;24.28;54.99;99215.63;4401404;32;33198;-90
2023/08/02 07:06:16;;;;;;;0.55;0.55;;;;;;;24.29;55.64;99213.75;4395567;32;33974;-91
2023/08/02 07:08:45;;;;;;;0.40;0.35;;;;;;;24.12;55.61;99218.31;4384256;32;33211;-91
2023/08/02 07:11:13;;;;;;;0.30;0.28;;;;;;;24.41;56.19;99222.41;4396169;32;33319;-92
2023/08/02 07:13:58;;;;;;;0.68;0.68;;;;;;;24.22;55.12;99221.69;4380577;32;32709;-91
2023/08/02 07:16:26;;;;;;;0.57;0.32;;;;;;;24.39;54.53;99219.84;4390203;32;32651;-91
2023/08/02 07:18:54;;;;;;;0.80;0.80;;;;;;;24.59;54.28;99212.25;4397904;32;33720;-90
2023/08/02 07:21:22;;;;;;;1.75;0.40;;;;;;;24.68;52.98;99218.47;4390596;32;31766;-91
2023/08/02 07:23:49;;;;;;;0.00;0.00;;;;;;;25.07;54.18;99218.59;4402828;32;33333;-90
2023/08/02 07:26:17;;;;;;;1.27;0.50;;;;;;;25.08;51.23;99206.75;4389782;32;32511;-91
2023/08/02 07:28:45;;;;;;;0.15;0.15;;;;;;;25.00;51.92;99201.34;4403038;32;33877;-91
2023/08/02 07:31:13;;;;;;;0.08;0.08;;;;;;;25.18;51.18;99210.09;4397564;32;33924;-91
2023/08/02 07:33:41;;;;;;;0.10;0.10;;;;;;;25.43;52.01;99209.97;4396660;32;33104;-91
2023/08/02 07:36:13;;;;;;;0.40;0.40;;;;;;;25.57;52.45;99209.22;4389993;32;32777;-91
2023/08/02 07:38:42;;;;;;;0.20;0.20;;;;;;;25.80;51.39;99201.19;4389999;32;33378;-91
2023/08/02 07:41:10;;;;;;;0.93;0.47;;;;;;;25.55;47.72;99205.88;4402698;32;33955;-91
2023/08/02 07:43:38;;;;;;;0.00;0.00;;;;;;;25.53;48.15;99218.72;4393972;32;33591;-91
2023/08/02 07:46:23;;;;;;;1.10;0.43;;;;;;;25.67;48.53;99203.59;4402596;32;33029;-91
2023/08/02 07:48:51;;;;;;;0.20;0.20;;;;;;;25.98;47.34;99201.75;4394399;32;33985;-90
2023/08/02 07:51:20;;;;;;;0.10;0.10;;;;;;;25.87;47.43;99195.88;4396142;32;33093;-91
2023/08/02 07:53:49;;;;;;;0.00;0.00;;;;;;;25.73;48.56;99209.16;4402682;32;33829;-90
2023/08/02 07:56:16;;;;;;;0.73;0.73;;;;;;;25.41;49.14;99220.97;4402361;32;32250;-91
2023/08/02 07:58:44;;;;;;;0.68;0.68;;;;;;;25.36;47.78;99217.97;4395252;32;33157;-90
2023/08/02 08:01:12;;;;;;;0.10;0.10;;;;;;;26.03;47.00;99215.56;4391548;32;33031;-90
2023/08/02 08:03:40;;;;;;;1.40;0.62;;;;;;;26.12;46.14;99205.53;4401193;32;33254;-90
2023/08/02 08:06:13;;;;;;;0.88;0.65;;;;;;;26.27;44.94;99198.28;4389485;32;32723;-90
2023/08/02 08:08:42;;;;;;;0.28;0.25;;;;;;;26.33;46.01;99199.41;4401745;32;33305;-90
2023/08/02 08:11:10;;;;;;;0.00;0.00;;;;;;;26.24;47.86;99193.22;4389646;32;33363;-90
2023/08/02 08:13:38;;;;;;;1.23;0.43;;;;;;;26.21;46.70;99190.91;4389667;32;33088;-90
2023/08/02 08:16:05;;;;;;;0.00;0.00;;;;;;;26.01;48.69;99195.09;4396894;32;32385;-90
2023/08/02 08:18:34;;;;;;;0.32;0.20;;;;;;;26.69;46.25;99191.50;4396306;32;33861;-90
2023/08/02 08:21:03;;;;;;;0.52;0.35;;;;;;;26.75;44.73;99190.75;4393011;32;32858;-90
2023/08/02 08:23:31;;;;;;;0.30;0.30;;;;;;;26.63;46.03;99183.25;4397678;32;33607;-90
2023/08/02 08:25:59;;;;;;;0.28;0.28;;;;;;;26.51;44.73;99191.00;4390236;32;32174;-91
2023/08/02 08:28:26;;;;;;;1.92;0.25;;;;;;;26.61;47.29;99191.56;4395927;32;33139;-90
2023/08/02 08:31:02;;;;;;;0.22;0.22;;;;;;;26.58;44.63;99191.94;4399826;32;33710;-91
2023/08/02 08:33:31;;;;;;;1.00;0.47;;;;;;;26.49;44.99;99191.19;4403155;32;33932;-90
2023/08/02 08:36:00;;;;;;;0.08;0.08;;;;;;;26.48;45.45;99196.78;4397375;32;32902;-90
2023/08/02 08:38:27;;;;;;;1.35;0.55;;;;;;;26.93;45.46;99193.09;4391539;32;34250;-90
2023/08/02 08:40:56;;;;;;;0.00;0.00;;;;;;;27.40;43.50;99199.16;4396285;32;33085;-89
2023/08/02 08:43:26;;;;;;;0.17;0.17;;;;;;;27.65;43.25;99191.53;4404402;32;33864;-90
2023/08/02 08:45:56;;;;;;;0.00;0.00;;;;;;;27.53;42.83;99204.72;4398057;32;33981;-90
2023/08/02 08:48:25;;;;;;;0.00;0.00;;;;;;;27.54;42.94;99206.44;4397718;32;33459;-90
2023/08/02 08:50:59;;;;;;;0.17;0.17;;;;;;;27.59;44.51;99212.12;4394673;32;34183;-88
2023/08/02 08:53:32;;;;;;;0.10;0.10;;;;;;;27.78;42.78;99200.69;4400277;32;32389;-89
2023/08/02 08:56:01;;;;;;;0.80;0.35;;;;;;;27.49;43.57;99196.16;4396559;32;32493;-90
2023/08/02 08:58:29;;;;;;;0.10;0.10;;;;;;;27.50;42.73;99207.84;4396737;32;35152;-90
2023/08/02 09:00:58;;;;;;;3.95;0.45;;;;;;;27.12;43.82;99210.69;4393966;32;33472;-90
2023/08/02 09:03:26;;;;;;;0.10;0.10;;;;;;;27.95;44.04;99205.84;4393869;32;32958;-90
2023/08/02 09:05:58;;;;;;;0.20;0.20;;;;;;;27.80;41.75;99204.03;4382975;32;32348;-91
2023/08/02 09:08:27;;;;;;;0.10;0.10;;;;;;;27.84;41.97;99200.94;4391048;32;33858;-91
2023/08/02 09:10:55;;;;;;;0.03;0.03;;;;;;;27.82;40.85;99201.09;4389414;32;33136;-90
2023/08/02 09:13:27;;;;;;;1.20;0.60;;;;;;;28.47;40.26;99193.81;4393636;32;32602;-90
2023/08/02 09:16:08;;;;;;;0.25;0.15;;;;;;;28.50;39.72;99186.13;4395983;32;33995;-90
2023/08/02 09:18:41;;;;;;;0.20;0.20;;;;;;;28.31;37.43;99190.31;4403777;32;33502;-90
2023/08/02 09:21:14;;;;;;;0.75;0.62;;;;;;;28.22;37.53;99190.66;4398328;32;34091;-89
2023/08/02 09:23:56;;;;;;;0.10;0.10;;;;;;;28.60;38.96;99188.47;4396831;32;33714;-90
2023/08/02 09:26:24;;;;;;;0.10;0.10;;;;;;;28.83;38.16;99193.66;4397659;32;32543;-91
2023/08/02 09:29:06;;;;;;;0.00;0.00;;;;;;;28.36;38.65;99192.47;4398380;32;33764;-90
2023/08/02 09:31:35;;;;;;;0.13;0.13;;;;;;;28.55;39.70;99182.81;4397268;32;33664;-90
2023/08/02 09:34:04;;;;;;;0.50;0.10;;;;;;;28.58;39.75;99185.97;4389984;32;32520;-90
2023/08/02 09:36:34;;;;;;;0.40;0.40;;;;;;;28.58;39.22;99185.97;4392712;32;33012;-89
2023/08/02 09:39:09;;;;;;;0.17;0.17;;;;;;;28.79;38.91;99186.94;4399546;32;33598;-90
2023/08/02 09:41:37;;;;;;;0.13;0.13;;;;;;;29.01;36.06;99179.59;4398360;32;33404;-90
2023/08/02 09:44:08;;;;;;;0.35;0.32;;;;;;;29.01;37.39;99182.31;4398119;32;33278;-90
2023/08/02 09:46:36;;;;;;;0.28;0.28;;;;;;;28.91;35.51;99181.78;4394883;32;32267;-90
2023/08/02 09:49:17;;;;;;;0.03;0.03;;;;;;;28.95;35.83;99183.94;4395426;32;33359;-90
2023/08/02 09:51:45;;;;;;;1.17;0.30;;;;;;;28.81;36.66;99182.12;4397655;32;33529;-90
2023/08/02 09:54:14;;;;;;;0.00;0.00;;;;;;;28.82;36.10;99190.09;4390887;32;33466;-90
2023/08/02 09:56:42;;;;;;;0.20;0.20;;;;;;;29.08;36.32;99192.16;4392743;32;32955;-90
2023/08/02 09:59:10;;;;;;;0.75;0.40;;;;;;;29.46;37.15;99188.16;4397002;32;33094;-90
2023/08/02 10:01:37;;;;;;;0.17;0.17;;;;;;;29.17;36.01;99195.56;4403723;32;34625;-90
2023/08/02 10:04:07;;;;;;;2.67;0.82;;;;;;;29.43;34.17;99183.09;4401577;32;32947;-90
2023/08/02 10:06:50;;;;;;;0.22;0.10;;;;;;;29.30;35.66;99190.19;4396228;32;32836;-90
2023/08/02 10:09:20;;;;;;;2.83;0.85;;;;;;;29.41;34.11;99185.19;4393428;32;34151;-90
2023/08/02 10:11:53;;;;;;;0.00;0.00;;;;;;;29.32;36.57;99188.09;4396584;32;34766;-90
2023/08/02 10:14:23;;;;;;;1.08;0.28;;;;;;;29.41;35.45;99182.47;4390682;32;32780;-90
2023/08/02 10:16:52;;;;;;;0.10;0.10;;;;;;;29.62;34.99;99182.34;4396286;32;32628;-90
2023/08/02 10:19:20;;;;;;;0.10;0.10;;;;;;;29.77;34.18;99184.94;4402734;32;32912;-90
2023/08/02 10:21:49;;;;;;;0.10;0.10;;;;;;;29.75;34.72;99182.41;4392799;32;34043;-90
2023/08/02 10:24:17;;;;;;;0.10;0.10;;;;;;;29.29;35.98;99185.78;4393080;32;33494;-90
2023/08/02 10:26:44;;;;;;;0.13;0.13;;;;;;;29.45;34.69;99181.03;4403027;32;32684;-90
2023/08/02 10:29:13;;;;;;;0.00;0.00;;;;;;;29.10;34.65;99172.91;4396629;32;33112;-90
2023/08/02 10:31:41;;;;;;;0.10;0.10;;;;;;;29.49;33.89;99168.72;4398174;32;33906;-90
2023/08/02 10:34:33;;;;;;;0.00;0.00;;;;;;;30.02;33.64;99160.69;4383782;32;33394;-90
2023/08/02 10:37:03;;;;;;;0.20;0.20;;;;;;;30.08;32.32;99160.66;4397104;32;33702;-90
2023/08/02 10:39:45;;;;;;;0.90;0.17;;;;;;;30.14;33.55;99161.75;4390057;32;32773;-90
2023/08/02 10:42:19;;;;;;;1.30;1.20;;;;;;;29.74;34.13;99158.97;4392407;32;33727;-90
2023/08/02 10:44:53;;;;;;;0.28;0.22;;;;;;;29.53;34.53;99156.34;4401646;32;32567;-90
2023/08/02 10:47:30;;;;;;;0.00;0.00;;;;;;;30.02;33.20;99155.22;4402698;32;34817;-90
2023/08/02 10:49:58;;;;;;;0.17;0.17;;;;;;;29.91;33.12;99153.09;4389679;32;32737;-90
2023/08/02 10:52:38;;;;;;;0.37;0.30;;;;;;;30.06;32.93;99149.16;4403177;32;33271;-90
2023/08/02 10:55:10;;;;;;;0.10;0.10;;;;;;;30.17;32.08;99136.84;4396847;32;33717;-90
2023/08/02 10:57:58;;;;;;;0.00;0.00;;;;;;;30.02;32.66;99144.34;4398943;32;33385;-89
2023/08/02 11:00:29;;;;;;;0.00;0.00;;;;;;;30.39;30.66;99133.91;4403447;32;33164;-89
2023/08/02 11:03:01;;;;;;;0.95;0.20;;;;;;;30.63;28.62;99129.66;4397500;32;34363;-90
2023/08/02 11:05:47;;;;;;;0.00;0.00;;;;;;;30.11;28.24;99137.66;4398238;32;34005;-90
2023/08/02 11:08:16;;;;;;;0.30;0.10;;;;;;;30.60;28.91;99130.91;4401481;32;33182;-90
2023/08/02 11:10:54;;;;;;;0.00;0.00;;;;;;;29.51;28.20;99125.81;4389316;32;32955;-89
2023/08/02 11:13:23;;;;;;;0.35;0.25;;;;;;;29.50;30.19;99129.56;4395026;32;34028;-90
2023/08/02 11:16:05;;;;;;;0.10;0.10;;;;;;;29.52;29.47;99127.47;4390537;32;33713;-90
2023/08/02 11:18:33;;;;;;;;;;;;;;;29.93;30.65;99123.81;4390416;32;33737;-90
2023/08/02 11:21:14;;;;;;;0.00;0.00;;;;;;;30.48;30.33;99118.97;4397442;32;34259;-90
2023/08/02 11:23:42;;;;;;;0.40;0.22;;;;;;;30.26;29.13;99112.97;4394148;32;32543;-90
2023/08/02 11:26:14;;;;;;;0.10;0.10;;;;;;;30.01;29.47;99099.97;4396852;32;34029;-89
2023/08/02 11:28:45;;;;;;;;;;;;;;;29.51;30.21;99093.16;4390652;32;33343;-90
2023/08/02 11:31:13;;;;;;;0.00;0.00;;;;;;;29.15;31.94;99098.91;4383609;32;33375;-90
2023/08/02 11:33:41;;;;;;;0.10;0.08;;;;;;;29.40;32.43;99085.63;4394899;32;34586;-89
2023/08/02 11:36:10;;;;;;;0.20;0.20;;;;;;;29.45;31.77;99088.56;4396404;32;34341;-89
2023/08/02 11:38:38;;;;;;;0.00;0.00;;;;;;;29.32;29.82;99095.63;4396492;32;32436;-89
2023/08/02 11:41:18;;;;;;;1.10;0.40;;;;;;;29.88;30.36;99080.06;4390578;32;33709;-89
2023/08/02 11:43:47;;;;;;;0.60;0.20;;;;;;;29.55;29.55;99072.72;4397994;32;33711;-89
2023/08/02 11:46:21;;;;;;;0.00;0.00;;;;;;;29.08;31.47;99085.31;4390310;32;34239;-89
2023/08/02 11:48:50;;;;;;;0.30;0.30;;;;;;;29.22;29.78;99083.47;4389687;32;31950;-89